McLaughlin, South Dakota
Current Conditions -  °F | °C
As of 9:07 PM on Thursday 20 Nov 2014 (Local Time) from KMBG Reporting Station
Broken Clouds Broken Clouds  
Wind Chill: 11°   Ceiling: 1000
Heat Index: 23°   Visibility: 10mi
Dew Point: 19°   Wind: 13mph
Humidity: 85%   Direction: 180°S
Pressure: 29.96"   Gusts: NA
Location:  45.81°N, 100.81°W
Report Text: KMBG 210407Z AUTO 18011KT 10SM BKN010 M05/M07 A2996 RMK AO2 T10501072
Loading
Personal Weather Stations






























Interactive Weather Map New forecast layout! Learn more

10-Day Weather Forecast

Advertisements
Track Severe Weather on mobile